createdAt,value
2023-01-01T00:01:47.630Z,15.20
2023-01-01T00:04:16.558Z,15.80
2023-01-01T00:06:46.111Z,15.30
2023-01-01T00:09:31.448Z,15.50
2023-01-01T00:11:59.334Z,15.30
2023-01-01T00:14:28.046Z,15.00
2023-01-01T00:16:56.091Z,15.90
2023-01-01T00:19:24.052Z,15.30
2023-01-01T00:21:53.850Z,15.20
2023-01-01T00:24:21.804Z,15.40
2023-01-01T00:26:49.639Z,15.40
2023-01-01T00:29:17.572Z,15.50
2023-01-01T00:31:46.735Z,15.80
2023-01-01T00:34:14.874Z,15.10
2023-01-01T00:36:42.776Z,15.40
2023-01-01T00:39:11.982Z,15.40
2023-01-01T00:41:39.877Z,15.90
2023-01-01T00:44:07.782Z,15.80
2023-01-01T00:46:35.757Z,15.40
2023-01-01T00:49:03.701Z,15.90
2023-01-01T00:51:36.767Z,15.40
2023-01-01T00:54:06.426Z,15.60
2023-01-01T00:56:36.238Z,15.40
2023-01-01T00:59:04.110Z,15.40
2023-01-01T01:01:33.411Z,16.00
2023-01-01T01:04:01.541Z,15.40
2023-01-01T01:06:29.649Z,15.60
2023-01-01T01:08:57.581Z,16.00
2023-01-01T01:11:26.920Z,15.50
2023-01-01T01:13:57.943Z,15.50
2023-01-01T01:16:27.779Z,15.70
2023-01-01T01:18:57.561Z,15.40
2023-01-01T01:21:26.201Z,15.40
2023-01-01T01:23:55.008Z,15.50
2023-01-01T01:26:25.543Z,15.50
2023-01-01T01:28:54.514Z,15.80
2023-01-01T01:31:25.717Z,15.50
2023-01-01T01:33:53.696Z,15.40
2023-01-01T01:36:22.359Z,15.60
2023-01-01T01:38:50.483Z,15.50
2023-01-01T01:41:27.960Z,15.20
2023-01-01T01:43:59.212Z,15.20
2023-01-01T01:46:32.574Z,15.80
2023-01-01T01:49:03.457Z,15.10
2023-01-01T01:51:35.551Z,15.40
2023-01-01T01:54:06.297Z,15.50
2023-01-01T01:56:44.508Z,15.30
2023-01-01T01:59:12.709Z,15.20
2023-01-01T02:01:42.448Z,15.40
2023-01-01T02:04:11.384Z,15.10
2023-01-01T02:06:40.539Z,15.10
2023-01-01T02:09:09.715Z,15.60
2023-01-01T02:11:37.793Z,15.40
2023-01-01T02:14:06.397Z,15.50
2023-01-01T02:16:38.966Z,15.60
2023-01-01T02:19:18.481Z,15.90
2023-01-01T02:21:55.904Z,16.10
2023-01-01T02:24:56.064Z,15.20
2023-01-01T02:27:33.540Z,15.20
2023-01-01T02:30:06.416Z,15.40
2023-01-01T02:32:39.603Z,15.20
2023-01-01T02:35:29.704Z,16.30
2023-01-01T02:38:01.064Z,15.20
2023-01-01T02:40:30.215Z,15.30
2023-01-01T02:42:58.908Z,15.50
2023-01-01T02:45:28.279Z,15.10
2023-01-01T02:47:56.154Z,15.80
2023-01-01T02:50:28.881Z,16.10
2023-01-01T02:53:13.986Z,15.60
2023-01-01T02:55:54.097Z,15.10
2023-01-01T02:58:51.852Z,15.40
2023-01-01T03:01:29.308Z,15.20
2023-01-01T03:04:05.948Z,15.40
2023-01-01T03:06:40.959Z,15.60
2023-01-01T03:09:17.657Z,15.30
2023-01-01T03:11:52.286Z,14.90
2023-01-01T03:14:26.793Z,15.80
2023-01-01T03:17:03.202Z,14.90
2023-01-01T03:19:37.277Z,15.50
2023-01-01T03:22:07.956Z,14.90
2023-01-01T03:24:39.292Z,14.90
2023-01-01T03:27:12.084Z,15.20
2023-01-01T03:29:42.395Z,14.80
2023-01-01T03:32:14.509Z,15.30
2023-01-01T03:34:48.495Z,14.80
2023-01-01T03:37:20.649Z,15.00
2023-01-01T03:39:52.023Z,15.40
2023-01-01T03:42:27.553Z,14.60
2023-01-01T03:45:01.597Z,14.80
2023-01-01T03:47:31.551Z,14.80
2023-01-01T03:50:00.718Z,14.70
2023-01-01T03:52:39.352Z,15.10
2023-01-01T03:55:13.036Z,15.00
2023-01-01T03:57:50.468Z,14.60
2023-01-01T04:00:20.696Z,15.50
2023-01-01T04:02:54.694Z,14.60
2023-01-01T04:05:24.356Z,15.40
2023-01-01T04:07:53.939Z,15.30
2023-01-01T04:10:22.482Z,14.70
2023-01-01T04:12:52.103Z,15.40
2023-01-01T04:15:21.577Z,15.00
2023-01-01T04:17:51.137Z,14.70
2023-01-01T04:20:19.429Z,14.60
2023-01-01T04:22:48.068Z,14.50
2023-01-01T04:25:17.351Z,14.80
2023-01-01T04:27:45.885Z,14.40
2023-01-01T04:30:15.325Z,15.00
2023-01-01T04:32:43.645Z,14.40
2023-01-01T04:35:14.400Z,14.40
2023-01-01T04:37:43.304Z,14.40
2023-01-01T04:40:12.873Z,14.90
2023-01-01T04:42:41.200Z,14.50
2023-01-01T04:45:12.288Z,15.40
2023-01-01T04:47:41.339Z,14.40
2023-01-01T04:50:09.965Z,15.20
2023-01-01T04:52:39.327Z,14.40
2023-01-01T04:55:08.022Z,14.80
2023-01-01T04:57:35.906Z,14.30
2023-01-01T05:00:03.971Z,14.40
2023-01-01T05:02:31.941Z,14.70
2023-01-01T05:04:59.864Z,14.70
2023-01-01T05:07:27.767Z,15.10
2023-01-01T05:09:57.015Z,15.70
2023-01-01T05:12:24.913Z,14.40
2023-01-01T05:14:52.794Z,14.50
2023-01-01T05:17:20.651Z,15.40
2023-01-01T05:19:48.546Z,14.40
2023-01-01T05:22:16.408Z,15.00
2023-01-01T05:24:44.291Z,15.40
2023-01-01T05:27:13.624Z,14.60
2023-01-01T05:29:41.504Z,15.30
2023-01-01T05:37:03.151Z,14.50
2023-01-01T05:39:31.061Z,14.50
2023-01-01T05:41:58.986Z,15.00
2023-01-01T05:44:28.248Z,15.20
2023-01-01T05:46:56.138Z,14.30
2023-01-01T05:49:24.014Z,14.70
2023-01-01T05:51:51.884Z,14.30
2023-01-01T05:54:19.751Z,15.70
2023-01-01T05:56:47.642Z,14.50
2023-01-01T05:59:15.505Z,15.30
2023-01-01T06:01:45.999Z,14.10
2023-01-01T06:04:14.879Z,14.10
2023-01-01T06:06:43.027Z,15.60
2023-01-01T06:09:12.190Z,15.00
2023-01-01T06:11:40.058Z,14.70
2023-01-01T06:14:07.909Z,14.80
2023-01-01T06:16:36.035Z,14.60
2023-01-01T06:19:05.318Z,14.90
2023-01-01T06:21:33.200Z,14.40
2023-01-01T06:24:01.598Z,14.50
2023-01-01T06:26:31.112Z,14.90
2023-01-01T06:28:59.916Z,14.40
2023-01-01T06:31:28.879Z,14.10
2023-01-01T06:33:56.928Z,14.90
2023-01-01T06:36:27.231Z,15.50
2023-01-01T06:38:58.564Z,14.00
2023-01-01T06:41:27.972Z,15.10
2023-01-01T06:43:57.010Z,15.00
2023-01-01T06:46:26.826Z,14.80
2023-01-01T06:48:57.360Z,13.80
2023-01-01T06:51:28.549Z,13.80
2023-01-01T06:53:59.065Z,14.50
2023-01-01T06:56:27.542Z,13.80
2023-01-01T06:58:55.388Z,13.80
2023-01-01T07:01:25.541Z,14.40
2023-01-01T07:03:55.167Z,14.70
2023-01-01T07:06:23.385Z,13.90
2023-01-01T07:08:53.000Z,15.10
2023-01-01T07:11:21.247Z,14.00
2023-01-01T07:13:49.170Z,15.10
2023-01-01T07:16:17.611Z,14.30
2023-01-01T07:18:45.942Z,15.00
2023-01-01T07:21:33.669Z,14.40
2023-01-01T07:24:05.011Z,14.00
2023-01-01T07:26:34.453Z,13.90
2023-01-01T07:29:07.583Z,14.90
2023-01-01T07:31:36.912Z,14.80
2023-01-01T07:34:05.146Z,14.00
2023-01-01T07:36:33.634Z,14.90
2023-01-01T07:39:02.873Z,14.70
2023-01-01T07:41:30.758Z,15.30
2023-01-01T07:43:58.627Z,13.50
2023-01-01T07:46:26.583Z,14.00
2023-01-01T07:48:54.483Z,14.60
2023-01-01T07:51:23.380Z,14.80
2023-01-01T07:53:51.267Z,15.00
2023-01-01T07:56:20.620Z,14.30
2023-01-01T07:58:48.494Z,14.00
2023-01-01T08:01:16.506Z,14.70
2023-01-01T08:03:44.446Z,14.90
2023-01-01T08:06:14.116Z,14.80
2023-01-01T08:08:42.366Z,13.90
2023-01-01T08:11:10.315Z,14.80
2023-01-01T08:13:39.527Z,13.80
2023-01-01T08:16:08.180Z,14.70
2023-01-01T08:18:36.200Z,13.60
2023-01-01T08:21:04.701Z,13.70
2023-01-01T08:23:32.749Z,13.40
2023-01-01T08:26:02.197Z,14.30
2023-01-01T08:28:30.540Z,14.80
2023-01-01T08:31:00.316Z,14.30
2023-01-01T08:33:28.371Z,13.50
2023-01-01T08:35:56.425Z,13.20
2023-01-01T08:38:24.462Z,13.20
2023-01-01T08:40:52.417Z,13.30
2023-01-01T08:43:20.364Z,13.90
2023-01-01T08:45:48.232Z,13.30
2023-01-01T08:48:17.475Z,13.30
2023-01-01T08:50:45.337Z,13.30
2023-01-01T08:53:13.667Z,13.30
2023-01-01T08:55:41.539Z,14.70
2023-01-01T08:58:09.419Z,13.70
2023-01-01T09:00:37.318Z,13.20
2023-01-01T09:03:05.453Z,13.20
2023-01-01T09:05:34.854Z,13.10
2023-01-01T09:08:02.774Z,13.20
2023-01-01T09:10:31.678Z,14.70
2023-01-01T09:12:59.557Z,13.60
2023-01-01T09:15:27.453Z,13.10
2023-01-01T09:17:55.332Z,13.10
2023-01-01T09:20:23.712Z,13.30
2023-01-01T09:22:52.983Z,13.00
2023-01-01T09:25:20.898Z,12.60
2023-01-01T09:27:48.961Z,12.90
2023-01-01T09:30:17.028Z,12.80
2023-01-01T09:32:44.926Z,13.00
2023-01-01T09:35:12.807Z,12.00
2023-01-01T09:37:40.692Z,13.50
2023-01-01T09:40:24.829Z,14.40
2023-01-01T09:43:00.162Z,12.10
2023-01-01T09:45:30.736Z,12.00
2023-01-01T09:48:04.539Z,11.80
2023-01-01T09:50:36.306Z,11.60
2023-01-01T09:53:08.971Z,11.50
2023-01-01T09:55:45.751Z,12.10
2023-01-01T09:58:14.310Z,11.00
2023-01-01T10:00:45.870Z,10.90
2023-01-01T10:03:30.770Z,12.30
2023-01-01T10:06:08.682Z,10.60
2023-01-01T10:08:47.640Z,9.80
2023-01-01T10:11:24.413Z,10.50
2023-01-01T10:13:54.276Z,10.50
2023-01-01T10:16:31.570Z,10.50
2023-01-01T10:19:03.744Z,12.50
2023-01-01T10:21:34.839Z,11.60
2023-01-01T10:24:11.521Z,10.60
2023-01-01T10:26:41.539Z,10.70
2023-01-01T10:29:17.612Z,11.40
2023-01-01T10:31:47.734Z,10.70
2023-01-01T10:34:19.850Z,10.70
2023-01-01T10:36:48.460Z,10.80
2023-01-01T10:39:18.071Z,10.80
2023-01-01T10:41:48.112Z,10.80
2023-01-01T10:44:19.464Z,10.90
2023-01-01T10:46:51.545Z,12.40
2023-01-01T10:49:19.409Z,10.90
2023-01-01T10:51:49.967Z,10.90
2023-01-01T10:54:32.112Z,11.10
2023-01-01T10:57:13.467Z,10.90
2023-01-01T10:59:46.851Z,11.00
2023-01-01T11:02:22.368Z,11.00
2023-01-01T11:04:51.492Z,11.00
2023-01-01T11:07:28.699Z,11.10
2023-01-01T11:10:04.192Z,11.00
2023-01-01T11:15:37.461Z,11.00
2023-01-01T11:18:07.491Z,11.00
2023-01-01T11:20:35.625Z,11.00
2023-01-01T11:23:20.825Z,12.10
2023-01-01T11:26:00.006Z,12.80
2023-01-01T11:28:31.541Z,10.90
2023-01-01T11:31:03.777Z,10.90
2023-01-01T11:33:34.898Z,11.00
2023-01-01T11:36:03.241Z,10.90
2023-01-01T11:38:31.358Z,10.90
2023-01-01T11:41:05.228Z,10.90
2023-01-01T11:43:41.001Z,10.90
2023-01-01T11:46:11.436Z,10.80
2023-01-01T11:48:44.293Z,10.90
2023-01-01T11:51:30.324Z,11.00
2023-01-01T11:54:12.142Z,10.90
2023-01-01T11:56:41.116Z,10.90
2023-01-01T11:59:17.150Z,10.90
2023-01-01T12:01:48.452Z,10.90
2023-01-01T12:04:24.536Z,11.50
2023-01-01T12:06:59.667Z,12.50
2023-01-01T12:09:36.077Z,10.90
2023-01-01T12:12:09.193Z,10.80
2023-01-01T12:14:45.238Z,10.90
2023-01-01T12:17:20.469Z,10.80
2023-01-01T12:19:56.963Z,10.80
2023-01-01T12:22:25.171Z,10.80
2023-01-01T12:24:54.389Z,10.90
2023-01-01T12:27:39.863Z,10.90
2023-01-01T12:30:18.553Z,11.70
2023-01-01T12:33:07.910Z,10.90
2023-01-01T12:35:48.016Z,10.90
2023-01-01T12:38:25.457Z,11.00
2023-01-01T12:40:58.673Z,10.90
2023-01-01T12:43:34.244Z,10.90
2023-01-01T12:46:27.178Z,10.90
2023-01-01T12:49:27.489Z,11.10
2023-01-01T12:52:15.683Z,11.00
2023-01-01T12:55:06.163Z,11.00
2023-01-01T12:57:40.975Z,11.10
2023-01-01T13:00:14.865Z,11.20
2023-01-01T13:02:49.955Z,11.20
2023-01-01T13:05:23.255Z,11.90
2023-01-01T13:07:57.088Z,11.50
2023-01-01T13:10:28.625Z,12.90
2023-01-01T13:12:57.202Z,12.50
2023-01-01T13:15:46.077Z,11.30
2023-01-01T13:18:35.047Z,11.30
2023-01-01T13:21:19.287Z,11.30
2023-01-01T13:23:55.048Z,11.70
2023-01-01T13:26:44.767Z,11.30
2023-01-01T13:29:47.081Z,11.30
2023-01-01T13:32:15.838Z,11.20
2023-01-01T13:35:03.668Z,11.20
2023-01-01T13:37:43.879Z,11.20
2023-01-01T13:40:48.446Z,11.20
2023-01-01T13:43:28.159Z,11.10
2023-01-01T13:46:13.816Z,11.00
2023-01-01T13:49:21.685Z,11.00
2023-01-01T13:52:26.161Z,10.80
2023-01-01T13:55:19.851Z,10.90
2023-01-01T13:58:33.241Z,10.90
2023-01-01T14:01:25.835Z,10.90
2023-01-01T14:03:56.764Z,10.90
2023-01-01T14:06:31.044Z,11.20
2023-01-01T14:09:06.275Z,10.90
2023-01-01T14:11:34.216Z,11.20
2023-01-01T14:14:02.231Z,10.90
2023-01-01T14:16:31.175Z,11.00
2023-01-01T14:19:03.390Z,11.00
2023-01-01T14:21:34.765Z,11.00
2023-01-01T14:24:06.490Z,11.20
2023-01-01T14:26:37.971Z,11.10
2023-01-01T14:29:08.873Z,11.10
2023-01-01T14:31:41.445Z,11.10
2023-01-01T14:34:16.877Z,11.20
2023-01-01T14:36:52.493Z,12.00
2023-01-01T14:39:28.232Z,11.30
2023-01-01T14:41:59.076Z,11.10
2023-01-01T14:44:32.087Z,11.10
2023-01-01T14:47:00.184Z,11.00
2023-01-01T14:49:30.808Z,11.20
2023-01-01T14:52:01.961Z,12.60
2023-01-01T14:54:37.037Z,11.50
2023-01-01T14:57:10.150Z,10.90
2023-01-01T14:59:45.996Z,10.90
2023-01-01T15:02:16.705Z,10.90
2023-01-01T15:04:44.965Z,10.80
2023-01-01T15:07:21.446Z,10.70
2023-01-01T15:09:51.528Z,10.70
2023-01-01T15:12:20.305Z,12.30
2023-01-01T15:14:51.071Z,12.50
2023-01-01T15:17:20.702Z,10.60
2023-01-01T15:20:02.227Z,10.60
2023-01-01T15:22:33.757Z,10.60
2023-01-01T15:25:03.714Z,11.80
2023-01-01T15:27:33.895Z,10.60
2023-01-01T15:30:05.933Z,12.40
2023-01-01T15:32:39.729Z,10.50
2023-01-01T15:35:19.357Z,10.80
2023-01-01T15:37:50.320Z,10.40
2023-01-01T15:40:37.135Z,10.40
2023-01-01T15:43:26.901Z,10.40
2023-01-01T15:46:00.264Z,10.40
2023-01-01T15:48:37.344Z,10.40
2023-01-01T15:51:24.569Z,10.40
2023-01-01T15:53:56.673Z,10.40
2023-01-01T15:56:28.402Z,10.30
2023-01-01T15:59:05.081Z,11.10
2023-01-01T16:01:39.694Z,10.30
2023-01-01T16:04:10.721Z,10.20
2023-01-01T16:06:44.806Z,10.10
2023-01-01T16:09:14.031Z,9.60
2023-01-01T16:11:43.877Z,10.10
2023-01-01T16:14:11.942Z,10.00
2023-01-01T16:16:41.356Z,10.00
2023-01-01T16:19:15.656Z,10.90
2023-01-01T16:21:43.557Z,9.90
2023-01-01T16:24:14.592Z,9.90
2023-01-01T16:26:44.292Z,10.10
2023-01-01T16:29:12.362Z,9.80
2023-01-01T16:31:41.217Z,9.80
2023-01-01T16:34:12.725Z,9.80
2023-01-01T16:36:40.610Z,9.70
2023-01-01T16:39:08.519Z,9.80
2023-01-01T16:41:36.442Z,9.80
2023-01-01T16:44:05.962Z,9.70
2023-01-01T16:46:34.012Z,9.80
2023-01-01T16:49:03.716Z,10.10
2023-01-01T16:51:32.568Z,9.80
2023-01-01T16:54:01.351Z,9.80
2023-01-01T16:56:29.947Z,9.90
2023-01-01T16:59:03.075Z,10.00
2023-01-01T17:01:33.119Z,10.00
2023-01-01T17:04:01.201Z,10.50
2023-01-01T17:06:29.097Z,10.10
2023-01-01T17:08:56.988Z,11.50
2023-01-01T17:11:24.996Z,11.00
2023-01-01T17:13:53.229Z,10.30
2023-01-01T17:16:27.963Z,10.30
2023-01-01T17:19:17.084Z,10.40
2023-01-01T17:21:46.445Z,10.80
2023-01-01T17:24:14.881Z,10.00
2023-01-01T17:26:42.844Z,12.10
2023-01-01T17:29:11.920Z,11.50
2023-01-01T17:31:39.922Z,10.30
2023-01-01T17:34:14.203Z,12.10
2023-01-01T17:36:43.294Z,10.60
2023-01-01T17:39:11.611Z,11.80
2023-01-01T17:41:39.901Z,12.10
2023-01-01T17:44:08.364Z,11.60
2023-01-01T17:46:36.475Z,10.80
2023-01-01T17:49:05.057Z,11.50
2023-01-01T17:51:34.313Z,10.90
2023-01-01T17:54:02.909Z,11.80
2023-01-01T17:56:30.907Z,10.90
2023-01-01T17:58:59.088Z,12.00
2023-01-01T18:01:32.051Z,11.00
2023-01-01T18:04:01.888Z,11.40
2023-01-01T18:06:30.798Z,10.80
2023-01-01T18:09:01.813Z,10.80
2023-01-01T18:11:31.353Z,11.00
2023-01-01T18:14:00.700Z,10.80
2023-01-01T18:16:29.391Z,12.20
2023-01-01T18:19:00.972Z,11.80
2023-01-01T18:21:29.212Z,10.70
2023-01-01T18:23:59.147Z,10.60
2023-01-01T18:26:29.811Z,10.60
2023-01-01T18:28:59.414Z,10.90
2023-01-01T18:31:28.690Z,10.50
2023-01-01T18:33:57.111Z,10.70
2023-01-01T18:36:27.494Z,10.50
2023-01-01T18:38:59.964Z,10.50
2023-01-01T18:42:02.204Z,10.60
2023-01-01T18:44:31.429Z,10.60
2023-01-01T18:47:03.066Z,10.90
2023-01-01T18:49:31.516Z,10.60
2023-01-01T18:52:11.918Z,10.50
2023-01-01T18:54:41.350Z,10.80
2023-01-01T18:57:15.086Z,10.80
2023-01-01T18:59:42.973Z,10.90
2023-01-01T19:02:27.821Z,10.90
2023-01-01T19:05:06.806Z,11.00
2023-01-01T19:07:34.750Z,11.00
2023-01-01T19:10:11.556Z,11.20
2023-01-01T19:12:39.443Z,11.10
2023-01-01T19:15:16.150Z,11.10
2023-01-01T19:17:44.340Z,11.20
2023-01-01T19:20:20.172Z,11.20
2023-01-01T19:22:48.716Z,11.20
2023-01-01T19:25:41.759Z,11.20
2023-01-01T19:28:34.419Z,11.20
2023-01-01T19:31:03.656Z,11.20
2023-01-01T19:33:32.080Z,11.50
2023-01-01T19:36:00.095Z,11.20
2023-01-01T19:38:28.028Z,11.20
2023-01-01T19:40:57.389Z,10.30
2023-01-01T19:43:25.305Z,11.20
2023-01-01T19:45:53.204Z,11.20
2023-01-01T19:48:21.123Z,11.20
2023-01-01T19:50:49.005Z,11.40
2023-01-01T19:53:16.899Z,11.20
2023-01-01T19:55:44.839Z,11.20
2023-01-01T19:58:14.087Z,11.20
2023-01-01T20:00:41.980Z,11.70
2023-01-01T20:03:51.399Z,11.10
2023-01-01T20:05:58.185Z,11.20
2023-01-01T20:08:26.897Z,11.10
2023-01-01T20:10:54.831Z,11.10
2023-01-01T20:13:24.225Z,11.10
2023-01-01T20:15:52.142Z,11.10
2023-01-01T20:18:20.058Z,11.10
2023-01-01T20:21:13.767Z,11.00
2023-01-01T20:23:41.804Z,11.40
2023-01-01T20:26:09.799Z,10.90
2023-01-01T20:28:56.252Z,10.90
2023-01-01T20:31:24.149Z,10.90
2023-01-01T20:33:52.058Z,10.80
2023-01-01T20:36:37.652Z,10.80
2023-01-01T20:39:05.504Z,10.80
2023-01-01T20:41:33.347Z,11.00
2023-01-01T20:44:02.619Z,10.70
2023-01-01T20:46:30.855Z,10.70
2023-01-01T20:48:59.547Z,10.70
2023-01-01T20:51:27.643Z,11.80
2023-01-01T20:53:55.685Z,10.70
2023-01-01T20:56:23.580Z,10.70
2023-01-01T20:58:56.066Z,10.70
2023-01-01T21:01:28.746Z,10.70
2023-01-01T21:03:56.723Z,10.70
2023-01-01T21:06:25.084Z,10.80
2023-01-01T21:08:53.307Z,10.80
2023-01-01T21:11:21.524Z,10.70
2023-01-01T21:13:50.142Z,10.70
2023-01-01T21:16:20.239Z,10.70
2023-01-01T21:18:49.937Z,11.40
2023-01-01T21:21:20.492Z,10.70
2023-01-01T21:23:49.309Z,10.60
2023-01-01T21:26:21.775Z,11.40
2023-01-01T21:28:49.751Z,10.60
2023-01-01T21:31:17.971Z,10.50
2023-01-01T21:33:47.004Z,10.50
2023-01-01T21:36:19.136Z,10.50
2023-01-01T21:38:47.909Z,10.50
2023-01-01T21:41:22.271Z,10.50
2023-01-01T21:43:51.973Z,10.50
2023-01-01T21:46:45.886Z,10.50
2023-01-01T21:49:20.102Z,10.60
2023-01-01T21:51:54.088Z,10.50
2023-01-01T21:54:27.998Z,10.50
2023-01-01T21:56:57.942Z,11.00
2023-01-01T21:59:37.073Z,10.50
2023-01-01T22:02:35.319Z,10.50
2023-01-01T22:05:28.161Z,10.50
2023-01-01T22:08:00.058Z,10.60
2023-01-01T22:10:33.809Z,10.60
2023-01-01T22:13:02.114Z,10.60
2023-01-01T22:15:38.997Z,10.70
2023-01-01T22:18:23.783Z,10.70
2023-01-01T22:20:51.989Z,10.70
2023-01-01T22:23:33.437Z,10.70
2023-01-01T22:26:01.577Z,10.70
2023-01-01T22:28:38.653Z,10.70
2023-01-01T22:31:06.829Z,10.70
2023-01-01T22:33:37.997Z,10.80
2023-01-01T22:36:13.626Z,10.80
2023-01-01T22:38:42.992Z,10.80
2023-01-01T22:41:10.951Z,10.80
2023-01-01T22:43:42.371Z,12.20
2023-01-01T22:46:18.148Z,10.80
2023-01-01T22:48:46.069Z,11.00
2023-01-01T22:51:19.485Z,10.80
2023-01-01T22:53:48.725Z,10.70
2023-01-01T22:56:16.593Z,11.00
2023-01-01T22:58:44.475Z,10.90
2023-01-01T23:01:12.855Z,10.80
2023-01-01T23:03:40.807Z,10.90
2023-01-01T23:06:08.982Z,10.70
2023-01-01T23:08:36.923Z,10.70
2023-01-01T23:11:06.290Z,10.70
2023-01-01T23:13:51.429Z,10.70
2023-01-01T23:16:19.393Z,11.70
2023-01-01T23:18:47.307Z,10.80
2023-01-01T23:21:26.035Z,10.80
2023-01-01T23:23:57.205Z,10.80
2023-01-01T23:26:26.804Z,10.80
2023-01-01T23:28:56.340Z,10.80
2023-01-01T23:31:25.887Z,12.30
2023-01-01T23:33:54.586Z,10.90
2023-01-01T23:36:22.705Z,10.90
2023-01-01T23:38:50.663Z,11.20
2023-01-01T23:41:18.657Z,10.90
2023-01-01T23:43:47.882Z,10.90
2023-01-01T23:46:16.286Z,10.90
2023-01-01T23:48:45.759Z,10.90
2023-01-01T23:51:14.260Z,10.90
2023-01-01T23:53:42.151Z,10.90
2023-01-01T23:56:10.040Z,10.90
2023-01-01T23:58:37.906Z,11.00
